Time;durP1;ratioP1;P1;durP2;ratioP2;P2;SDS_P1;SDS_P2;PMS_P1;PMS_P2;Temp;Humidity;BMP_temperature;BMP_pressure;BME280_temperature;BME280_humidity;BME280_pressure;Samples;Min_cycle;Max_cycle;Signal;HPM_P1;HPM_P2
2022/02/07 00:06:08;;;;;;;;;;;;;;;;;;5115576;28;19916;-81
2022/02/07 00:08:34;;;;;;;;;;;;;;;;;;5115611;28;19960;-75
2022/02/07 00:11:00;;;;;;;;;;;;;;;;;;5115437;28;19920;-79
2022/02/07 00:13:25;;;;;;;;;;;;;;;;;;5115097;28;19911;-76
2022/02/07 00:15:51;;;;;;;;;;;;;;;;;;5115531;28;19930;-84
2022/02/07 00:18:17;;;;;;;;;;;;;;;;;;5115381;28;20271;-82
2022/02/07 00:20:42;;;;;;;;;;;;;;;;;;5114929;28;20421;-84
2022/02/07 00:23:08;;;;;;;;;;;;;;;;;;5115060;28;19916;-81
2022/02/07 00:25:34;;;;;;;;;;;;;;;;;;5115261;28;20248;-82
2022/02/07 00:28:00;;;;;;;;;;;;;;;;;;5115204;28;19916;-82
2022/02/07 00:30:25;;;;;;;;;;;;;;;;;;5096718;28;20425;-82
2022/02/07 00:32:51;;;;;;;;;;;;;;;;;;5114763;28;19959;-80
2022/02/07 00:35:19;;;;;;;;;;;;;;;;;;5115178;28;19927;-80
2022/02/07 00:37:47;;;;;;;;;;;;;;;;;;5115157;28;19916;-77
2022/02/07 00:42:54;;;;;;;;;;;;;;;;;;5114465;28;19923;-82
2022/02/07 00:45:39;;;;;;;;;;;;;;;;;;5114883;28;19915;-83
2022/02/07 00:48:05;;;;;;;;;;;;;;;;;;5114839;28;19916;-75
2022/02/07 00:50:32;;;;;;;;;;;;;;;;;;5114602;28;19916;-76
2022/02/07 00:52:57;;;;;;;;;;;;;;;;;;5114172;28;19926;-78
2022/02/07 00:55:23;;;;;;;;;;;;;;;;;;5114977;28;19920;-83
2022/02/07 00:57:48;;;;;;;;;;;;;;;;;;5114710;28;19916;-77
2022/02/07 01:00:14;;;;;;;;;;;;;;;;;;5113794;28;19912;-80
2022/02/07 01:02:40;;;;;;;;;;;;;;;;;;5113949;28;20594;-79
2022/02/07 01:05:06;;;;;;;;;;;;;;;;;;5114450;28;20287;-83
2022/02/07 01:07:31;;;;;;;;;;;;;;;;;;5114524;28;20010;-75
2022/02/07 01:09:58;;;;;;;;;;;;;;;;;;5129642;27;19920;-77
2022/02/07 01:15:01;;;;;;;;;;;;;;;;;;5134452;27;19923;-83
2022/02/07 01:50:27;;;;;;;;;;;;;;;;;;5134425;27;19961;-81
2022/02/07 01:57:58;;;;;;;;;;;;;;;;;;5134781;28;19923;-74
2022/02/07 02:00:23;;;;;;;;;;;;;;;;;;5135066;28;19923;-78
2022/02/07 02:02:49;;;;;;;;;;;;;;;;;;5136106;28;20287;-77
2022/02/07 02:05:15;;;;;;;;;;;;;;;;;;5136673;28;19916;-84
2022/02/07 02:07:41;;;;;;;;;;;;;;;;;;5134647;28;19923;-82
2022/02/07 02:10:07;;;;;;;;;;;;;;;;;;5115856;28;19920;-82
2022/02/07 02:12:37;;;;;;;;;;;;;;;;;;5118885;27;20291;-83
2022/02/07 02:15:26;;;;;;;;;;;;;;;;;;5137906;27;19924;-82
2022/02/07 02:47:04;;;;;;;;;;;;;;;;;;5137946;27;19930;-83
2022/02/07 02:49:34;;;;;;;;;;;;;;;;;;5137688;27;19915;-75
2022/02/07 02:51:59;;;;;;;;;;;;;;;;;;5137612;27;19969;-74
2022/02/07 02:54:24;;;;;;;;;;;;;;;;;;5137212;27;19923;-74
2022/02/07 02:56:50;;;;;;;;;;;;;;;;;;5137512;27;20325;-76
2022/02/07 02:59:16;;;;;;;;;;;;;;;;;;5137525;27;20031;-74
2022/02/07 03:01:41;;;;;;;;;;;;;;;;;;5137259;27;20367;-76
2022/02/07 03:04:07;;;;;;;;;;;;;;;;;;5137001;27;19937;-80
2022/02/07 03:06:34;;;;;;;;;;;;;;;;;;5137306;27;19961;-83
2022/02/07 03:09:00;;;;;;;;;;;;;;;;;;5137332;27;19915;-74
2022/02/07 03:11:27;;;;;;;;;;;;;;;;;;5137357;27;20384;-82
2022/02/07 03:13:55;;;;;;;;;;;;;;;;;;5137089;27;19916;-77
2022/02/07 03:16:37;;;;;;;;;;;;;;;;;;5137165;27;19923;-83
2022/02/07 03:19:13;;;;;;;;;;;;;;;;;;5137255;27;20063;-82
2022/02/07 03:21:39;;;;;;;;;;;;;;;;;;5136979;27;20386;-74
2022/02/07 03:24:05;;;;;;;;;;;;;;;;;;5135978;27;20391;-79
2022/02/07 03:26:35;;;;;;;;;;;;;;;;;;5136871;27;20006;-78
2022/02/07 03:29:01;;;;;;;;;;;;;;;;;;5136864;27;19919;-79
2022/02/07 03:31:26;;;;;;;;;;;;;;;;;;5136942;27;20385;-83
2022/02/07 03:33:51;;;;;;;;;;;;;;;;;;5136870;27;19911;-76
2022/02/07 03:36:17;;;;;;;;;;;;;;;;;;5136335;27;20261;-81
2022/02/07 03:38:44;;;;;;;;;;;;;;;;;;5136690;27;19911;-82
2022/02/07 03:41:10;;;;;;;;;;;;;;;;;;5136789;27;19976;-80
2022/02/07 03:43:35;;;;;;;;;;;;;;;;;;5136116;27;19920;-83
2022/02/07 03:46:02;;;;;;;;;;;;;;;;;;5136504;27;19912;-80
2022/02/07 03:48:27;;;;;;;;;;;;;;;;;;5136437;27;19926;-82
2022/02/07 03:50:53;;;;;;;;;;;;;;;;;;5136404;27;19916;-78
2022/02/07 03:53:18;;;;;;;;;;;;;;;;;;5136191;27;19972;-74
2022/02/07 03:55:44;;;;;;;;;;;;;;;;;;5136209;27;20013;-83
2022/02/07 03:58:09;;;;;;;;;;;;;;;;;;5136331;27;20355;-83
2022/02/07 04:00:35;;;;;;;;;;;;;;;;;;5136645;27;19922;-76
2022/02/07 04:03:05;;;;;;;;;;;;;;;;;;5135785;27;19915;-79
2022/02/07 04:08:00;;;;;;;;;;;;;;;;;;5136582;27;20360;-82
2022/02/07 04:10:27;;;;;;;;;;;;;;;;;;5136289;27;19916;-78
2022/02/07 04:12:58;;;;;;;;;;;;;;;;;;5135953;27;19916;-80
2022/02/07 04:15:24;;;;;;;;;;;;;;;;;;5135751;27;20328;-82
2022/02/07 04:18:03;;;;;;;;;;;;;;;;;;5136101;27;19915;-82
2022/02/07 04:20:28;;;;;;;;;;;;;;;;;;5135997;27;19969;-82
2022/02/07 04:22:54;;;;;;;;;;;;;;;;;;5135408;27;19915;-81
2022/02/07 04:25:19;;;;;;;;;;;;;;;;;;5135665;27;19915;-81
2022/02/07 04:27:45;;;;;;;;;;;;;;;;;;5135654;27;19915;-82
2022/02/07 04:30:11;;;;;;;;;;;;;;;;;;5135766;27;19960;-83
2022/02/07 04:32:36;;;;;;;;;;;;;;;;;;5135630;27;19926;-80
2022/02/07 04:35:02;;;;;;;;;;;;;;;;;;5134297;27;19967;-76
2022/02/07 04:37:27;;;;;;;;;;;;;;;;;;5135778;27;19919;-81
2022/02/07 04:39:54;;;;;;;;;;;;;;;;;;5135724;27;19916;-77
2022/02/07 04:42:21;;;;;;;;;;;;;;;;;;5135428;27;20010;-81
2022/02/07 04:58:06;;;;;;;;;;;;;;;;;;5116292;27;19924;-81
2022/02/07 05:03:20;;;;;;;;;;;;;;;;;;5114461;28;20286;-82
2022/02/07 05:16:14;;;;;;;;;;;;;;;;;;5092231;28;19923;-79
2022/02/07 05:18:40;;;;;;;;;;;;;;;;;;5130425;27;20451;-78
2022/02/07 05:21:05;;;;;;;;;;;;;;;;;;5133585;27;19915;-80
2022/02/07 05:23:31;;;;;;;;;;;;;;;;;;5134412;27;19994;-81
2022/02/07 05:25:56;;;;;;;;;;;;;;;;;;5134505;27;20064;-80
2022/02/07 05:28:21;;;;;;;;;;;;;;;;;;5134465;27;19998;-82
2022/02/07 05:30:47;;;;;;;;;;;;;;;;;;5115949;27;20283;-75
2022/02/07 05:33:12;;;;;;;;;;;;;;;;;;5134842;27;19998;-75
2022/02/07 05:35:38;;;;;;;;;;;;;;;;;;5134367;27;19919;-81
2022/02/07 05:38:06;;;;;;;;;;;;;;;;;;5134705;27;19915;-83
2022/02/07 05:40:41;;;;;;;;;;;;;;;;;;5134588;27;19919;-81
2022/02/07 05:43:08;;;;;;;;;;;;;;;;;;5134335;27;20307;-79
2022/02/07 05:45:33;;;;;;;;;;;;;;;;;;5134269;27;19943;-83
2022/02/07 05:47:59;;;;;;;;;;;;;;;;;;5134208;27;20287;-79
2022/02/07 05:50:24;;;;;;;;;;;;;;;;;;5134328;27;20286;-78
2022/02/07 05:52:50;;;;;;;;;;;;;;;;;;5132527;28;19977;-78
2022/02/07 05:55:15;;;;;;;;;;;;;;;;;;5113752;28;20291;-82
2022/02/07 05:57:41;;;;;;;;;;;;;;;;;;5105363;28;19920;-77
2022/02/07 06:00:06;;;;;;;;;;;;;;;;;;5073304;28;19943;-79
2022/02/07 06:02:32;;;;;;;;;;;;;;;;;;5104652;28;19916;-76
2022/02/07 06:04:57;;;;;;;;;;;;;;;;;;5113178;28;19931;-76
2022/02/07 06:07:23;;;;;;;;;;;;;;;;;;5113476;28;19916;-76
2022/02/07 06:09:48;;;;;;;;;;;;;;;;;;5113543;28;19959;-76
2022/02/07 06:12:13;;;;;;;;;;;;;;;;;;5113555;28;20002;-80
2022/02/07 06:14:39;;;;;;;;;;;;;;;;;;5113566;28;19919;-79
2022/02/07 06:17:04;;;;;;;;;;;;;;;;;;5113538;28;19919;-80
2022/02/07 06:19:30;;;;;;;;;;;;;;;;;;5113345;28;19947;-80
2022/02/07 06:21:56;;;;;;;;;;;;;;;;;;5113665;28;20341;-76
2022/02/07 06:24:21;;;;;;;;;;;;;;;;;;5113100;28;19916;-78
2022/02/07 06:26:47;;;;;;;;;;;;;;;;;;5112934;28;20398;-78
2022/02/07 06:29:12;;;;;;;;;;;;;;;;;;5094822;28;19915;-81
2022/02/07 06:31:38;;;;;;;;;;;;;;;;;;5094664;28;20006;-79
2022/02/07 06:34:03;;;;;;;;;;;;;;;;;;5113235;28;19916;-84
2022/02/07 06:36:29;;;;;;;;;;;;;;;;;;5113359;28;19988;-76
2022/02/07 06:38:54;;;;;;;;;;;;;;;;;;5112979;28;19916;-77
2022/02/07 06:41:20;;;;;;;;;;;;;;;;;;5113450;28;19922;-77
2022/02/07 06:43:45;;;;;;;;;;;;;;;;;;5113085;28;19915;-80
2022/02/07 06:46:11;;;;;;;;;;;;;;;;;;5113157;28;19916;-77
2022/02/07 06:48:36;;;;;;;;;;;;;;;;;;5113148;28;19927;-75
2022/02/07 06:51:03;;;;;;;;;;;;;;;;;;5113259;28;19946;-76
2022/02/07 06:53:28;;;;;;;;;;;;;;;;;;5120205;28;19926;-77
2022/02/07 06:55:54;;;;;;;;;;;;;;;;;;5133763;28;20006;-81
2022/02/07 06:58:19;;;;;;;;;;;;;;;;;;5134368;27;19922;-79
2022/02/07 07:00:45;;;;;;;;;;;;;;;;;;5137524;27;19954;-81
2022/02/07 07:03:17;;;;;;;;;;;;;;;;;;5137601;27;20014;-81
2022/02/07 07:05:43;;;;;;;;;;;;;;;;;;5136876;27;19919;-80
2022/02/07 07:08:08;;;;;;;;;;;;;;;;;;5137174;27;20435;-75
2022/02/07 07:10:34;;;;;;;;;;;;;;;;;;5137180;27;19922;-82
2022/02/07 07:13:16;;;;;;;;;;;;;;;;;;5137270;27;19915;-76
2022/02/07 07:16:14;;;;;;;;;;;;;;;;;;5137276;27;19916;-75
2022/02/07 07:18:27;;;;;;;;;;;;;;;;;;5136348;27;20352;-75
2022/02/07 07:20:52;;;;;;;;;;;;;;;;;;5136861;27;19915;-75
2022/02/07 07:23:17;;;;;;;;;;;;;;;;;;5136947;27;19922;-75
2022/02/07 07:25:45;;;;;;;;;;;;;;;;;;5136625;27;19919;-77
2022/02/07 07:28:13;;;;;;;;;;;;;;;;;;5136814;27;20367;-76
2022/02/07 07:30:44;;;;;;;;;;;;;;;;;;5136884;27;20382;-74
2022/02/07 07:33:15;;;;;;;;;;;;;;;;;;5137177;27;19923;-75
2022/02/07 07:35:40;;;;;;;;;;;;;;;;;;5137033;27;19923;-76
2022/02/07 07:38:05;;;;;;;;;;;;;;;;;;5137243;27;20012;-75
2022/02/07 07:40:31;;;;;;;;;;;;;;;;;;5136561;27;19922;-76
2022/02/07 07:42:56;;;;;;;;;;;;;;;;;;5136806;27;19919;-78
2022/02/07 07:45:26;;;;;;;;;;;;;;;;;;5136617;27;19915;-80
2022/02/07 07:47:58;;;;;;;;;;;;;;;;;;5136574;27;20363;-81
2022/02/07 07:50:52;;;;;;;;;;;;;;;;;;5136634;27;19960;-78
2022/02/07 08:03:40;;;;;;;;;;;;;;;;;;5136468;27;19956;-76
2022/02/07 08:06:12;;;;;;;;;;;;;;;;;;5136014;27;20012;-81
2022/02/07 08:08:50;;;;;;;;;;;;;;;;;;5136233;27;19920;-77
2022/02/07 08:11:16;;;;;;;;;;;;;;;;;;5136337;27;19922;-77
2022/02/07 08:13:44;;;;;;;;;;;;;;;;;;5136172;27;20264;-82
2022/02/07 08:16:10;;;;;;;;;;;;;;;;;;5135927;27;19951;-78
2022/02/07 08:18:36;;;;;;;;;;;;;;;;;;5136085;27;19964;-78
2022/02/07 08:21:01;;;;;;;;;;;;;;;;;;5135820;27;19919;-78
2022/02/07 08:23:26;;;;;;;;;;;;;;;;;;5135819;27;19915;-76
2022/02/07 08:25:53;;;;;;;;;;;;;;;;;;5135745;27;19940;-79
2022/02/07 08:28:18;;;;;;;;;;;;;;;;;;5135555;27;19981;-76
2022/02/07 08:30:44;;;;;;;;;;;;;;;;;;5135540;27;19950;-76
2022/02/07 08:33:09;;;;;;;;;;;;;;;;;;5135693;27;19915;-78
2022/02/07 08:35:34;;;;;;;;;;;;;;;;;;5135772;27;19939;-77
2022/02/07 08:38:00;;;;;;;;;;;;;;;;;;5135764;27;20010;-81
2022/02/07 08:40:29;;;;;;;;;;;;;;;;;;5135558;27;19922;-76
2022/02/07 08:42:55;;;;;;;;;;;;;;;;;;5135084;27;20023;-76
2022/02/07 08:45:21;;;;;;;;;;;;;;;;;;5135441;27;19915;-75
2022/02/07 08:47:47;;;;;;;;;;;;;;;;;;5135196;27;19923;-77
2022/02/07 08:50:12;;;;;;;;;;;;;;;;;;5134627;27;19922;-83
2022/02/07 08:52:44;;;;;;;;;;;;;;;;;;5135387;27;19915;-76
2022/02/07 08:55:18;;;;;;;;;;;;;;;;;;5135257;27;19919;-76
2022/02/07 08:57:46;;;;;;;;;;;;;;;;;;5135162;27;19916;-79
2022/02/07 09:00:17;;;;;;;;;;;;;;;;;;5134949;27;19920;-75
2022/02/07 09:08:49;;;;;;;;;;;;;;;;;;5135032;27;20350;-77
2022/02/07 09:10:37;;;;;;;;;;;;;;;;;;5119948;27;19922;-77
2022/02/07 09:13:03;;;;;;;;;;;;;;;;;;5134759;27;19919;-84
2022/02/07 09:15:32;;;;;;;;;;;;;;;;;;5135111;27;19911;-82
2022/02/07 09:18:04;;;;;;;;;;;;;;;;;;5134749;27;19965;-80
2022/02/07 09:20:30;;;;;;;;;;;;;;;;;;5134383;27;19915;-82
2022/02/07 09:22:55;;;;;;;;;;;;;;;;;;5134373;27;19922;-82
2022/02/07 09:25:21;;;;;;;;;;;;;;;;;;5134602;27;19918;-83
2022/02/07 09:27:46;;;;;;;;;;;;;;;;;;5134471;27;19919;-82
2022/02/07 09:30:12;;;;;;;;;;;;;;;;;;5134567;27;19923;-83
2022/02/07 09:32:38;;;;;;;;;;;;;;;;;;5134769;27;19915;-84
2022/02/07 09:35:03;;;;;;;;;;;;;;;;;;5134778;27;20410;-86
2022/02/07 09:37:29;;;;;;;;;;;;;;;;;;5134810;27;19916;-82
2022/02/07 09:39:54;;;;;;;;;;;;;;;;;;5137829;27;20019;-80
2022/02/07 09:42:20;;;;;;;;;;;;;;;;;;5143536;27;19919;-85
2022/02/07 09:44:52;;;;;;;;;;;;;;;;;;5141655;27;19916;-76
2022/02/07 09:47:17;;;;;;;;;;;;;;;;;;5143440;27;19919;-81
2022/02/07 09:49:46;;;;;;;;;;;;;;;;;;5141652;27;20393;-76
2022/02/07 09:52:11;;;;;;;;;;;;;;;;;;5131824;28;19919;-83
2022/02/07 09:54:37;;;;;;;;;;;;;;;;;;5113747;28;19923;-82
2022/02/07 09:57:03;;;;;;;;;;;;;;;;;;5113786;28;20008;-77
2022/02/07 09:59:30;;;;;;;;;;;;;;;;;;5095459;28;19966;-81
2022/02/07 10:01:59;;;;;;;;;;;;;;;;;;5113580;28;20336;-82
2022/02/07 10:04:31;;;;;;;;;;;;;;;;;;5114117;28;20320;-77
2022/02/07 10:07:11;;;;;;;;;;;;;;;;;;5113597;28;19915;-82
2022/02/07 10:09:44;;;;;;;;;;;;;;;;;;5113513;28;19916;-82
2022/02/07 10:17:33;;;;;;;;;;;;;;;;;;5113625;28;19920;-81
2022/02/07 10:20:26;;;;;;;;;;;;;;;;;;5113667;28;19912;-82
2022/02/07 10:40:10;;;;;;;;;;;;;;;;;;5097465;28;19923;-84
2022/02/07 10:43:08;;;;;;;;;;;;;;;;;;5117429;28;19915;-83
2022/02/07 10:45:34;;;;;;;;;;;;;;;;;;5117169;28;19930;-83
2022/02/07 10:48:04;;;;;;;;;;;;;;;;;;5117101;28;20379;-76
2022/02/07 10:50:29;;;;;;;;;;;;;;;;;;5116930;28;19919;-84
2022/02/07 10:52:57;;;;;;;;;;;;;;;;;;5116731;28;20010;-84
2022/02/07 10:55:26;;;;;;;;;;;;;;;;;;5117085;28;19982;-83
2022/02/07 10:57:52;;;;;;;;;;;;;;;;;;5116935;28;19920;-77
2022/02/07 11:00:25;;;;;;;;;;;;;;;;;;5116902;28;19976;-77
2022/02/07 11:05:30;;;;;;;;;;;;;;;;;;5116814;28;19916;-83
2022/02/07 11:08:06;;;;;;;;;;;;;;;;;;5116588;28;19958;-82
2022/02/07 11:10:51;;;;;;;;;;;;;;;;;;5116345;28;19916;-77
2022/02/07 11:16:19;;;;;;;;;;;;;;;;;;5106930;27;19950;-80
2022/02/07 11:19:35;;;;;;;;;;;;;;;;;;5096358;28;20307;-80
2022/02/07 11:22:07;;;;;;;;;;;;;;;;;;5093984;28;19916;-78
2022/02/07 11:24:50;;;;;;;;;;;;;;;;;;5095965;28;20295;-78
2022/02/07 11:27:28;;;;;;;;;;;;;;;;;;5096062;28;20315;-82
2022/02/07 11:29:53;;;;;;;;;;;;;;;;;;5095668;28;19962;-86
2022/02/07 11:32:37;;;;;;;;;;;;;;;;;;5095924;28;19916;-80
2022/02/07 11:35:04;;;;;;;;;;;;;;;;;;5095850;28;20471;-88
2022/02/07 11:37:29;;;;;;;;;;;;;;;;;;5095885;28;20006;-78
2022/02/07 11:39:55;;;;;;;;;;;;;;;;;;5095840;28;19943;-77
2022/02/07 11:42:20;;;;;;;;;;;;;;;;;;5095585;28;19916;-84
2022/02/07 11:44:46;;;;;;;;;;;;;;;;;;5095056;28;19912;-76
2022/02/07 11:47:15;;;;;;;;;;;;;;;;;;5095535;28;19916;-84
2022/02/07 11:49:41;;;;;;;;;;;;;;;;;;5095403;28;19939;-83
2022/02/07 11:52:25;;;;;;;;;;;;;;;;;;5095297;28;20010;-77
2022/02/07 11:54:58;;;;;;;;;;;;;;;;;;5094944;28;19920;-84
2022/02/07 11:57:30;;;;;;;;;;;;;;;;;;5095254;28;19955;-77
2022/02/07 11:59:59;;;;;;;;;;;;;;;;;;5095393;28;20291;-86
2022/02/07 12:02:34;;;;;;;;;;;;;;;;;;5094946;28;19916;-84
2022/02/07 12:04:59;;;;;;;;;;;;;;;;;;5095348;28;19916;-83
2022/02/07 12:07:25;;;;;;;;;;;;;;;;;;5095215;28;20407;-76
2022/02/07 12:10:14;;;;;;;;;;;;;;;;;;5095042;28;19967;-78
2022/02/07 12:12:44;;;;;;;;;;;;;;;;;;5095316;28;19916;-82
2022/02/07 12:15:15;;;;;;;;;;;;;;;;;;5095350;28;19941;-75
2022/02/07 12:17:41;;;;;;;;;;;;;;;;;;5095047;28;19945;-85
2022/02/07 12:20:07;;;;;;;;;;;;;;;;;;5094990;28;20383;-81
2022/02/07 12:22:53;;;;;;;;;;;;;;;;;;5094525;28;19939;-83
2022/02/07 12:25:55;;;;;;;;;;;;;;;;;;5095104;28;19916;-76
2022/02/07 12:28:34;;;;;;;;;;;;;;;;;;5094612;28;20355;-77
2022/02/07 12:33:30;;;;;;;;;;;;;;;;;;5095125;28;20332;-81
2022/02/07 12:35:57;;;;;;;;;;;;;;;;;;5094619;28;19922;-77
2022/02/07 12:38:26;;;;;;;;;;;;;;;;;;5094549;28;20443;-86
2022/02/07 12:40:51;;;;;;;;;;;;;;;;;;5094480;28;19923;-88
2022/02/07 12:43:18;;;;;;;;;;;;;;;;;;5094852;28;19924;-76
2022/02/07 12:45:44;;;;;;;;;;;;;;;;;;5098314;27;19916;-81
2022/02/07 12:48:15;;;;;;;;;;;;;;;;;;5109187;27;19928;-81
2022/02/07 12:50:41;;;;;;;;;;;;;;;;;;5094184;28;19923;-82
2022/02/07 12:53:07;;;;;;;;;;;;;;;;;;5096060;27;19927;-85
2022/02/07 12:55:34;;;;;;;;;;;;;;;;;;5093581;28;19926;-82
2022/02/07 12:58:00;;;;;;;;;;;;;;;;;;5094224;28;19919;-82
2022/02/07 13:00:26;;;;;;;;;;;;;;;;;;5094131;28;19916;-81
2022/02/07 13:02:54;;;;;;;;;;;;;;;;;;5099530;27;20287;-78
2022/02/07 13:05:20;;;;;;;;;;;;;;;;;;5103282;28;19916;-75
2022/02/07 13:07:49;;;;;;;;;;;;;;;;;;5112471;27;20485;-76
2022/02/07 13:10:18;;;;;;;;;;;;;;;;;;5123336;27;20367;-76
2022/02/07 13:13:20;;;;;;;;;;;;;;;;;;5134878;27;19917;-76
2022/02/07 13:15:41;;;;;;;;;;;;;;;;;;5134710;27;19918;-76
2022/02/07 13:18:13;;;;;;;;;;;;;;;;;;5134777;27;20306;-77
2022/02/07 13:20:41;;;;;;;;;;;;;;;;;;5134886;27;20010;-76
2022/02/07 13:23:10;;;;;;;;;;;;;;;;;;5134765;27;20410;-76
2022/02/07 13:25:43;;;;;;;;;;;;;;;;;;5135123;27;19912;-76
2022/02/07 13:28:16;;;;;;;;;;;;;;;;;;5118523;27;20421;-78
2022/02/07 13:30:43;;;;;;;;;;;;;;;;;;5101534;27;19919;-76
2022/02/07 13:33:08;;;;;;;;;;;;;;;;;;5114022;28;19915;-76
2022/02/07 13:35:39;;;;;;;;;;;;;;;;;;5113770;28;20380;-77
2022/02/07 13:38:06;;;;;;;;;;;;;;;;;;5112082;27;19919;-75
2022/02/07 13:40:38;;;;;;;;;;;;;;;;;;5109685;28;19915;-76
2022/02/07 13:43:04;;;;;;;;;;;;;;;;;;5093842;28;20317;-75
2022/02/07 13:45:31;;;;;;;;;;;;;;;;;;5093784;28;19923;-76
2022/02/07 13:47:58;;;;;;;;;;;;;;;;;;5093418;28;19923;-76
2022/02/07 13:50:28;;;;;;;;;;;;;;;;;;5094607;28;19945;-75
2022/02/07 13:52:54;;;;;;;;;;;;;;;;;;5093114;28;19916;-76
2022/02/07 13:55:23;;;;;;;;;;;;;;;;;;5093352;28;19972;-76
2022/02/07 13:57:49;;;;;;;;;;;;;;;;;;5093282;28;20398;-76
2022/02/07 14:00:15;;;;;;;;;;;;;;;;;;5093431;28;19916;-79
2022/02/07 14:02:41;;;;;;;;;;;;;;;;;;5094796;28;19916;-84
2022/02/07 14:05:07;;;;;;;;;;;;;;;;;;5093758;28;20410;-84
2022/02/07 14:07:47;;;;;;;;;;;;;;;;;;5096509;27;20359;-76
2022/02/07 14:10:17;;;;;;;;;;;;;;;;;;5097080;28;20261;-76
2022/02/07 14:12:42;;;;;;;;;;;;;;;;;;5079277;28;19981;-78
2022/02/07 14:15:08;;;;;;;;;;;;;;;;;;5097659;28;19912;-76
2022/02/07 14:17:33;;;;;;;;;;;;;;;;;;5097503;28;19962;-83
2022/02/07 14:20:00;;;;;;;;;;;;;;;;;;5097347;28;20300;-81
2022/02/07 14:22:28;;;;;;;;;;;;;;;;;;5097176;28;19912;-80
2022/02/07 14:24:53;;;;;;;;;;;;;;;;;;5097249;28;19959;-80
2022/02/07 14:27:18;;;;;;;;;;;;;;;;;;5097246;28;19951;-79
2022/02/07 14:29:44;;;;;;;;;;;;;;;;;;5097051;28;19920;-77
2022/02/07 14:32:09;;;;;;;;;;;;;;;;;;5096814;28;19916;-77
2022/02/07 14:34:35;;;;;;;;;;;;;;;;;;5097388;28;19923;-78
2022/02/07 14:37:07;;;;;;;;;;;;;;;;;;5097270;28;20368;-76
2022/02/07 14:39:36;;;;;;;;;;;;;;;;;;5097015;28;19923;-81
2022/02/07 14:42:03;;;;;;;;;;;;;;;;;;5097198;28;20041;-77
2022/02/07 14:44:32;;;;;;;;;;;;;;;;;;5096831;28;19927;-77
2022/02/07 14:47:12;;;;;;;;;;;;;;;;;;5096820;28;19920;-84
2022/02/07 14:49:38;;;;;;;;;;;;;;;;;;5102517;27;20011;-84
2022/02/07 14:52:04;;;;;;;;;;;;;;;;;;5100439;27;20003;-78
2022/02/07 14:54:32;;;;;;;;;;;;;;;;;;5100681;28;20339;-83
2022/02/07 14:56:57;;;;;;;;;;;;;;;;;;5104988;28;20015;-87
2022/02/07 14:59:25;;;;;;;;;;;;;;;;;;5088046;28;20010;-82
2022/02/07 15:01:52;;;;;;;;;;;;;;;;;;5104251;28;19934;-82
2022/02/07 15:04:19;;;;;;;;;;;;;;;;;;5097197;27;19923;-85
2022/02/07 15:06:44;;;;;;;;;;;;;;;;;;5077916;28;19919;-79
2022/02/07 15:09:10;;;;;;;;;;;;;;;;;;5109190;27;19924;-83
2022/02/07 15:11:35;;;;;;;;;;;;;;;;;;5096682;28;20292;-77
2022/02/07 15:14:00;;;;;;;;;;;;;;;;;;5096461;28;19978;-76
2022/02/07 15:16:26;;;;;;;;;;;;;;;;;;5096172;28;19916;-84
2022/02/07 15:18:52;;;;;;;;;;;;;;;;;;5077088;28;20010;-78
2022/02/07 15:21:17;;;;;;;;;;;;;;;;;;5096315;28;20391;-83
2022/02/07 15:23:42;;;;;;;;;;;;;;;;;;5111981;28;19923;-86
2022/02/07 15:26:08;;;;;;;;;;;;;;;;;;5095886;28;19916;-83
2022/02/07 15:28:34;;;;;;;;;;;;;;;;;;5096022;28;19919;-89
2022/02/07 15:30:59;;;;;;;;;;;;;;;;;;5095795;28;20003;-80
2022/02/07 15:33:33;;;;;;;;;;;;;;;;;;5095983;28;20061;-83
2022/02/07 15:35:59;;;;;;;;;;;;;;;;;;5095978;28;20257;-77
2022/02/07 15:38:25;;;;;;;;;;;;;;;;;;5095525;28;20007;-78
2022/02/07 15:40:52;;;;;;;;;;;;;;;;;;5096090;28;19911;-82
2022/02/07 15:43:17;;;;;;;;;;;;;;;;;;5096021;28;19955;-83
2022/02/07 15:45:44;;;;;;;;;;;;;;;;;;5095677;28;20454;-80
2022/02/07 15:48:09;;;;;;;;;;;;;;;;;;5095625;28;20388;-81
2022/02/07 15:50:35;;;;;;;;;;;;;;;;;;5095460;28;19943;-79
2022/02/07 15:53:02;;;;;;;;;;;;;;;;;;5095308;28;19974;-84
2022/02/07 15:55:28;;;;;;;;;;;;;;;;;;5095683;28;20319;-83
2022/02/07 15:57:54;;;;;;;;;;;;;;;;;;5095349;28;19912;-84
2022/02/07 16:00:19;;;;;;;;;;;;;;;;;;5099753;28;20335;-85
2022/02/07 16:02:49;;;;;;;;;;;;;;;;;;5097419;27;19935;-77
2022/02/07 16:05:18;;;;;;;;;;;;;;;;;;5100012;27;19991;-84
2022/02/07 16:07:44;;;;;;;;;;;;;;;;;;5107068;28;19968;-85
2022/02/07 16:10:09;;;;;;;;;;;;;;;;;;5099065;28;19935;-84
2022/02/07 16:12:35;;;;;;;;;;;;;;;;;;5101817;28;20064;-81
2022/02/07 16:15:01;;;;;;;;;;;;;;;;;;5101532;28;19923;-84
2022/02/07 16:17:26;;;;;;;;;;;;;;;;;;5100602;28;20121;-85
2022/02/07 16:19:51;;;;;;;;;;;;;;;;;;5105080;28;19919;-84
2022/02/07 16:22:17;;;;;;;;;;;;;;;;;;5099192;28;20295;-77
2022/02/07 16:24:45;;;;;;;;;;;;;;;;;;5101939;28;19920;-82
2022/02/07 16:27:11;;;;;;;;;;;;;;;;;;5102469;28;19928;-86
2022/02/07 16:29:36;;;;;;;;;;;;;;;;;;5106227;28;20387;-85
2022/02/07 16:32:02;;;;;;;;;;;;;;;;;;5100980;28;19924;-81
2022/02/07 16:34:27;;;;;;;;;;;;;;;;;;5099080;28;19920;-76
2022/02/07 16:36:53;;;;;;;;;;;;;;;;;;5101084;28;19924;-77
2022/02/07 16:39:22;;;;;;;;;;;;;;;;;;5101692;28;19924;-81
2022/02/07 16:41:49;;;;;;;;;;;;;;;;;;5102622;27;19930;-80
2022/02/07 16:44:15;;;;;;;;;;;;;;;;;;5102310;28;19943;-79
2022/02/07 16:46:51;;;;;;;;;;;;;;;;;;5101820;28;19916;-82
2022/02/07 16:49:35;;;;;;;;;;;;;;;;;;5099782;28;19930;-80
2022/02/07 16:52:01;;;;;;;;;;;;;;;;;;5099061;28;19966;-76
2022/02/07 16:54:28;;;;;;;;;;;;;;;;;;5103367;28;20455;-78
2022/02/07 16:56:57;;;;;;;;;;;;;;;;;;5103560;28;19943;-79
2022/02/07 16:59:23;;;;;;;;;;;;;;;;;;5098685;28;19970;-77
2022/02/07 17:01:52;;;;;;;;;;;;;;;;;;5099371;27;19931;-78
2022/02/07 17:04:18;;;;;;;;;;;;;;;;;;5100368;28;19928;-77
2022/02/07 17:06:43;;;;;;;;;;;;;;;;;;5084747;28;20391;-77
2022/02/07 17:09:09;;;;;;;;;;;;;;;;;;5105406;28;19923;-77
2022/02/07 17:11:34;;;;;;;;;;;;;;;;;;5110004;28;19919;-78
2022/02/07 17:14:00;;;;;;;;;;;;;;;;;;5114018;28;19915;-79
2022/02/07 17:16:25;;;;;;;;;;;;;;;;;;5114158;28;19962;-77
2022/02/07 17:18:50;;;;;;;;;;;;;;;;;;5105149;28;19915;-78
2022/02/07 17:21:16;;;;;;;;;;;;;;;;;;5100061;28;19919;-79
2022/02/07 17:23:41;;;;;;;;;;;;;;;;;;5101738;28;19920;-81
2022/02/07 17:26:07;;;;;;;;;;;;;;;;;;5114119;28;19960;-77
2022/02/07 17:28:33;;;;;;;;;;;;;;;;;;5113760;28;19994;-78
2022/02/07 17:30:59;;;;;;;;;;;;;;;;;;5130326;27;19916;-77
2022/02/07 17:33:27;;;;;;;;;;;;;;;;;;5134687;27;19916;-77
2022/02/07 17:35:54;;;;;;;;;;;;;;;;;;5134599;27;20375;-77
2022/02/07 17:38:29;;;;;;;;;;;;;;;;;;5134266;27;19959;-79
2022/02/07 17:40:56;;;;;;;;;;;;;;;;;;5134254;27;20386;-79
2022/02/07 17:43:29;;;;;;;;;;;;;;;;;;5134013;27;19916;-80
2022/02/07 17:45:55;;;;;;;;;;;;;;;;;;5134540;27;19915;-75
2022/02/07 17:48:20;;;;;;;;;;;;;;;;;;5134147;27;19975;-80
2022/02/07 17:50:46;;;;;;;;;;;;;;;;;;5134186;27;20359;-80
2022/02/07 17:53:12;;;;;;;;;;;;;;;;;;5133915;27;19919;-80
2022/02/07 17:55:37;;;;;;;;;;;;;;;;;;5134319;27;19980;-75
2022/02/07 17:58:04;;;;;;;;;;;;;;;;;;5134184;28;19916;-80
2022/02/07 18:00:29;;;;;;;;;;;;;;;;;;5115566;28;20346;-77
2022/02/07 18:02:55;;;;;;;;;;;;;;;;;;5101930;28;19916;-80
2022/02/07 18:05:30;;;;;;;;;;;;;;;;;;5102391;28;20412;-75
2022/02/07 18:07:56;;;;;;;;;;;;;;;;;;5102140;28;20359;-79
2022/02/07 18:10:22;;;;;;;;;;;;;;;;;;5101058;28;19927;-78
2022/02/07 18:12:47;;;;;;;;;;;;;;;;;;5103936;28;19927;-80
2022/02/07 18:15:13;;;;;;;;;;;;;;;;;;5099947;28;19916;-78
2022/02/07 18:17:38;;;;;;;;;;;;;;;;;;5098409;28;19920;-76
2022/02/07 18:20:19;;;;;;;;;;;;;;;;;;5098267;28;20362;-77
2022/02/07 18:22:50;;;;;;;;;;;;;;;;;;5099159;28;19928;-81
2022/02/07 18:25:17;;;;;;;;;;;;;;;;;;5097703;28;19923;-79
2022/02/07 18:27:46;;;;;;;;;;;;;;;;;;5101715;28;20272;-82
2022/02/07 18:30:14;;;;;;;;;;;;;;;;;;5096731;28;20003;-80
2022/02/07 18:32:40;;;;;;;;;;;;;;;;;;5104328;28;19927;-81
2022/02/07 18:35:06;;;;;;;;;;;;;;;;;;5092908;28;20280;-80
2022/02/07 18:37:31;;;;;;;;;;;;;;;;;;5095668;28;19926;-79
2022/02/07 18:39:57;;;;;;;;;;;;;;;;;;5099912;28;20018;-79
2022/02/07 18:42:22;;;;;;;;;;;;;;;;;;5095483;28;19924;-77
2022/02/07 18:44:54;;;;;;;;;;;;;;;;;;5095855;28;20401;-80
2022/02/07 18:47:20;;;;;;;;;;;;;;;;;;5100882;28;20337;-78
2022/02/07 18:49:46;;;;;;;;;;;;;;;;;;5097777;28;19923;-77
2022/02/07 18:52:11;;;;;;;;;;;;;;;;;;5100405;28;19920;-76
2022/02/07 18:54:37;;;;;;;;;;;;;;;;;;5103846;28;20011;-77
2022/02/07 18:57:04;;;;;;;;;;;;;;;;;;5103654;28;20382;-79
2022/02/07 18:59:34;;;;;;;;;;;;;;;;;;5106896;28;20390;-76
2022/02/07 19:02:13;;;;;;;;;;;;;;;;;;5103661;28;19928;-81
2022/02/07 19:07:10;;;;;;;;;;;;;;;;;;5104472;28;20010;-76
2022/02/07 19:09:41;;;;;;;;;;;;;;;;;;5103760;28;20014;-79
2022/02/07 19:12:07;;;;;;;;;;;;;;;;;;5104316;27;19946;-77
2022/02/07 19:14:32;;;;;;;;;;;;;;;;;;5102182;28;19924;-79
2022/02/07 19:16:58;;;;;;;;;;;;;;;;;;5108022;28;20025;-78
2022/02/07 19:19:34;;;;;;;;;;;;;;;;;;5104630;28;19920;-79
2022/02/07 19:22:12;;;;;;;;;;;;;;;;;;5100833;28;20324;-79
2022/02/07 19:24:43;;;;;;;;;;;;;;;;;;5101582;28;19955;-76
2022/02/07 19:27:20;;;;;;;;;;;;;;;;;;5100005;28;20010;-79